createdAt,value
2022-09-18T00:00:01.699Z,11.60
2022-09-18T00:01:09.646Z,11.60
2022-09-18T00:02:11.347Z,11.60
2022-09-18T00:03:13.385Z,11.60
2022-09-18T00:04:15.492Z,11.50
2022-09-18T00:05:17.155Z,11.50
2022-09-18T00:06:22.290Z,11.50
2022-09-18T00:07:24.071Z,11.50
2022-09-18T00:08:26.412Z,11.50
2022-09-18T00:09:28.351Z,11.50
2022-09-18T00:10:30.464Z,11.50
2022-09-18T00:11:36.874Z,11.50
2022-09-18T00:12:38.518Z,11.50
2022-09-18T00:13:41.112Z,11.50
2022-09-18T00:14:42.955Z,11.50
2022-09-18T00:15:54.761Z,11.50
2022-09-18T00:16:56.449Z,11.50
2022-09-18T00:17:58.320Z,11.50
2022-09-18T00:19:00.465Z,11.50
2022-09-18T00:20:02.322Z,11.50
2022-09-18T00:21:10.264Z,11.50
2022-09-18T00:22:11.825Z,11.50
2022-09-18T00:23:13.479Z,11.50
2022-09-18T00:24:17.742Z,11.50
2022-09-18T00:25:19.517Z,11.50
2022-09-18T00:26:22.071Z,11.50
2022-09-18T00:27:24.216Z,11.50
2022-09-18T00:28:25.961Z,11.50
2022-09-18T00:29:27.675Z,11.50
2022-09-18T00:30:29.793Z,11.50
2022-09-18T00:31:34.990Z,11.50
2022-09-18T00:32:37.882Z,11.50
2022-09-18T00:33:40.295Z,11.50
2022-09-18T00:34:42.064Z,11.50
2022-09-18T00:35:44.575Z,11.50
2022-09-18T00:36:46.603Z,11.50
2022-09-18T00:37:48.696Z,11.50
2022-09-18T00:38:50.740Z,11.60
2022-09-18T00:39:52.998Z,11.60
2022-09-18T00:40:55.235Z,11.60
2022-09-18T00:41:56.763Z,11.60
2022-09-18T00:42:59.141Z,11.60
2022-09-18T00:44:39.201Z,11.50
2022-09-18T00:45:41.100Z,11.50
2022-09-18T00:46:45.326Z,11.40
2022-09-18T00:47:51.308Z,11.50
2022-09-18T00:49:03.190Z,11.50
2022-09-18T00:50:08.653Z,11.40
2022-09-18T00:51:10.552Z,11.40
2022-09-18T00:52:14.042Z,11.40
2022-09-18T00:53:16.033Z,11.40
2022-09-18T00:54:34.619Z,11.30
2022-09-18T00:55:42.600Z,11.30
2022-09-18T00:56:44.761Z,11.30
2022-09-18T00:57:51.517Z,11.30
2022-09-18T00:58:53.216Z,11.30
2022-09-18T00:59:55.391Z,11.30
2022-09-18T01:00:58.690Z,11.30
2022-09-18T01:02:00.990Z,11.30
2022-09-18T01:03:02.973Z,11.40
2022-09-18T01:04:06.459Z,11.30
2022-09-18T01:05:09.532Z,11.30
2022-09-18T01:06:20.840Z,11.30
2022-09-18T01:07:31.448Z,11.30
2022-09-18T01:08:58.702Z,11.20
2022-09-18T01:10:13.747Z,11.20
2022-09-18T01:11:35.407Z,11.30
2022-09-18T01:12:58.366Z,11.30
2022-09-18T01:14:27.731Z,11.30
2022-09-18T01:16:10.433Z,11.20
2022-09-18T01:17:16.196Z,11.30
2022-09-18T01:18:35.707Z,11.30
2022-09-18T01:19:40.487Z,11.30
2022-09-18T01:21:14.780Z,11.20
2022-09-18T01:22:44.583Z,11.20
2022-09-18T01:24:13.493Z,11.20
2022-09-18T01:25:57.271Z,11.20
2022-09-18T01:27:11.250Z,11.20
2022-09-18T01:28:20.981Z,11.20
2022-09-18T01:29:41.416Z,11.20
2022-09-18T01:30:45.826Z,11.20
2022-09-18T01:31:53.624Z,11.20
2022-09-18T01:33:00.060Z,11.20
2022-09-18T01:34:13.739Z,11.20
2022-09-18T01:35:40.706Z,11.20
2022-09-18T01:36:50.138Z,11.20
2022-09-18T01:38:10.605Z,11.20
2022-09-18T01:39:31.318Z,11.20
2022-09-18T01:40:41.556Z,11.20
2022-09-18T01:41:50.823Z,11.10
2022-09-18T01:42:59.256Z,11.10
2022-09-18T01:44:07.828Z,11.10
2022-09-18T01:45:17.303Z,11.10
2022-09-18T01:46:20.735Z,11.10
2022-09-18T01:47:28.934Z,11.10
2022-09-18T01:48:52.441Z,11.10
2022-09-18T01:49:55.625Z,11.10
2022-09-18T01:51:06.011Z,11.00
2022-09-18T01:52:12.474Z,11.00
2022-09-18T01:53:19.906Z,11.00
2022-09-18T01:54:30.314Z,11.00
2022-09-18T01:55:34.513Z,11.00
2022-09-18T01:56:45.107Z,11.00
2022-09-18T01:57:58.461Z,11.00
2022-09-18T01:59:04.344Z,11.00
2022-09-18T02:00:14.572Z,11.00
2022-09-18T02:01:21.964Z,11.00
2022-09-18T02:02:30.319Z,11.00
2022-09-18T02:03:38.261Z,11.10
2022-09-18T02:04:42.675Z,11.10
2022-09-18T02:05:54.413Z,11.00
2022-09-18T02:07:14.472Z,11.00
2022-09-18T02:08:38.848Z,11.00
2022-09-18T02:09:42.658Z,11.00
2022-09-18T02:10:51.338Z,11.00
2022-09-18T02:11:58.563Z,11.00
2022-09-18T02:13:01.969Z,11.00
2022-09-18T02:14:11.083Z,11.00
2022-09-18T02:15:36.065Z,11.00
2022-09-18T02:16:51.553Z,11.10
2022-09-18T02:17:58.968Z,11.10
2022-09-18T02:19:18.472Z,11.00
2022-09-18T02:20:28.055Z,11.00
2022-09-18T02:21:30.956Z,11.10
2022-09-18T02:22:34.875Z,11.10
2022-09-18T02:23:39.433Z,11.00
2022-09-18T02:24:43.200Z,11.00
2022-09-18T02:25:51.986Z,11.00
2022-09-18T02:26:54.533Z,11.00
2022-09-18T02:27:57.608Z,11.00
2022-09-18T02:29:00.640Z,11.00
2022-09-18T02:30:05.350Z,11.10
2022-09-18T02:31:07.457Z,11.10
2022-09-18T02:32:09.075Z,11.10
2022-09-18T02:33:33.039Z,11.10
2022-09-18T02:34:36.099Z,11.10
2022-09-18T02:35:46.211Z,11.10
2022-09-18T02:36:55.032Z,11.10
2022-09-18T02:38:21.566Z,11.10
2022-09-18T02:40:06.794Z,11.10
2022-09-18T02:41:34.413Z,11.10
2022-09-18T02:42:46.796Z,11.10
2022-09-18T02:44:00.822Z,11.00
2022-09-18T02:45:16.700Z,11.00
2022-09-18T02:46:21.489Z,11.00
2022-09-18T02:47:35.871Z,11.00
2022-09-18T02:49:07.446Z,11.00
2022-09-18T02:50:09.242Z,11.10
2022-09-18T02:51:30.748Z,11.00
2022-09-18T02:52:46.648Z,11.00
2022-09-18T02:54:03.856Z,11.00
2022-09-18T02:55:11.991Z,11.00
2022-09-18T02:56:28.146Z,11.00
2022-09-18T02:57:38.852Z,10.90
2022-09-18T02:58:52.493Z,10.90
2022-09-18T02:59:58.308Z,10.90
2022-09-18T03:01:03.650Z,10.90
2022-09-18T03:02:07.862Z,10.90
2022-09-18T03:03:18.004Z,10.90
2022-09-18T03:04:29.034Z,10.90
2022-09-18T03:05:42.333Z,10.90
2022-09-18T03:06:43.841Z,10.90
2022-09-18T03:07:46.549Z,11.00
2022-09-18T03:08:48.131Z,11.00
2022-09-18T03:09:49.683Z,11.00
2022-09-18T03:10:51.524Z,11.00
2022-09-18T03:11:54.014Z,10.90
2022-09-18T03:12:56.230Z,10.90
2022-09-18T03:13:57.897Z,10.90
2022-09-18T03:14:59.806Z,10.90
2022-09-18T03:16:02.262Z,10.90
2022-09-18T03:17:04.163Z,10.90
2022-09-18T03:18:06.940Z,10.80
2022-09-18T03:19:08.761Z,10.80
2022-09-18T03:20:10.948Z,10.90
2022-09-18T03:21:12.592Z,10.80
2022-09-18T03:22:14.871Z,10.90
2022-09-18T03:23:17.378Z,10.90
2022-09-18T03:24:21.355Z,10.80
2022-09-18T03:25:24.099Z,10.90
2022-09-18T03:26:25.968Z,10.90
2022-09-18T03:27:28.289Z,10.80
2022-09-18T03:28:33.279Z,10.80
2022-09-18T03:29:35.122Z,10.80
2022-09-18T03:30:37.663Z,10.80
2022-09-18T03:31:39.897Z,10.70
2022-09-18T03:32:41.908Z,10.70
2022-09-18T03:33:44.847Z,10.70
2022-09-18T03:34:47.356Z,10.70
2022-09-18T03:35:50.199Z,10.70
2022-09-18T03:36:51.706Z,10.70
2022-09-18T03:37:54.927Z,10.70
2022-09-18T03:38:59.184Z,10.70
2022-09-18T03:40:01.130Z,10.70
2022-09-18T03:41:04.514Z,10.80
2022-09-18T03:42:06.367Z,10.80
2022-09-18T03:43:09.935Z,10.80
2022-09-18T03:44:12.122Z,10.80
2022-09-18T03:45:16.760Z,10.80
2022-09-18T03:46:23.368Z,10.80
2022-09-18T03:47:28.083Z,10.80
2022-09-18T03:48:30.355Z,10.80
2022-09-18T03:49:32.220Z,10.80
2022-09-18T03:50:33.894Z,10.80
2022-09-18T03:51:36.915Z,10.80
2022-09-18T03:52:38.733Z,10.80
2022-09-18T03:53:59.530Z,10.80
2022-09-18T03:55:27.585Z,10.80
2022-09-18T03:56:40.645Z,10.70
2022-09-18T03:58:04.997Z,10.70
2022-09-18T03:59:41.784Z,10.70
2022-09-18T04:01:00.518Z,10.70
2022-09-18T04:02:12.342Z,10.70
2022-09-18T04:03:14.161Z,10.70
2022-09-18T04:04:42.065Z,10.70
2022-09-18T04:06:19.001Z,10.70
2022-09-18T04:07:42.025Z,10.70
2022-09-18T04:09:01.989Z,10.70
2022-09-18T04:10:12.833Z,10.70
2022-09-18T04:11:15.211Z,10.70
2022-09-18T04:12:17.056Z,10.70
2022-09-18T04:13:21.749Z,10.70
2022-09-18T04:14:29.976Z,10.60
2022-09-18T04:15:32.322Z,10.70
2022-09-18T04:16:34.551Z,10.60
2022-09-18T04:17:36.542Z,10.60
2022-09-18T04:18:38.304Z,10.60
2022-09-18T04:19:41.167Z,10.60
2022-09-18T04:20:45.892Z,10.60
2022-09-18T04:21:48.058Z,10.60
2022-09-18T04:22:50.100Z,10.60
2022-09-18T04:23:52.200Z,10.60
2022-09-18T04:24:54.340Z,10.60
2022-09-18T04:25:57.160Z,10.60
2022-09-18T04:27:03.801Z,10.60
2022-09-18T04:28:05.809Z,10.60
2022-09-18T04:29:07.559Z,10.60
2022-09-18T04:30:11.308Z,10.60
2022-09-18T04:31:15.072Z,10.60
2022-09-18T04:32:16.969Z,10.60
2022-09-18T04:33:18.484Z,10.60
2022-09-18T04:34:22.359Z,10.60
2022-09-18T04:35:24.228Z,10.60
2022-09-18T04:36:25.846Z,10.60
2022-09-18T04:37:31.143Z,10.60
2022-09-18T04:38:34.098Z,10.70
2022-09-18T04:39:35.961Z,10.70
2022-09-18T04:40:38.614Z,10.70
2022-09-18T04:41:40.276Z,10.70
2022-09-18T04:42:42.252Z,10.70
2022-09-18T04:43:44.581Z,10.70
2022-09-18T04:44:47.356Z,10.70
2022-09-18T04:45:49.830Z,10.70
2022-09-18T04:46:52.601Z,10.70
2022-09-18T04:47:54.244Z,10.70
2022-09-18T04:48:58.388Z,10.60
2022-09-18T04:50:02.363Z,10.70
2022-09-18T04:51:04.833Z,10.70
2022-09-18T04:52:19.936Z,10.70
2022-09-18T04:53:21.998Z,10.70
2022-09-18T04:54:23.650Z,10.70
2022-09-18T04:55:26.145Z,10.60
2022-09-18T04:56:27.760Z,10.60
2022-09-18T04:57:29.740Z,10.70
2022-09-18T04:58:31.513Z,10.70
2022-09-18T04:59:35.835Z,10.70
2022-09-18T05:00:38.329Z,10.80
2022-09-18T05:01:40.580Z,10.80
2022-09-18T05:02:46.072Z,10.80
2022-09-18T05:03:51.097Z,10.80
2022-09-18T05:05:02.385Z,10.80
2022-09-18T05:06:08.724Z,10.80
2022-09-18T05:07:10.727Z,10.80
2022-09-18T05:08:12.464Z,10.80
2022-09-18T05:09:14.274Z,10.80
2022-09-18T05:10:16.280Z,10.80
2022-09-18T05:11:17.821Z,10.70
2022-09-18T05:12:19.432Z,10.70
2022-09-18T05:13:21.729Z,10.70
2022-09-18T05:14:37.173Z,10.70
2022-09-18T05:15:41.360Z,10.70
2022-09-18T05:16:44.264Z,10.70
2022-09-18T05:18:11.577Z,10.70
2022-09-18T05:19:13.709Z,10.70
2022-09-18T05:20:15.504Z,10.80
2022-09-18T05:21:18.494Z,10.80
2022-09-18T05:22:20.052Z,10.80
2022-09-18T05:23:24.422Z,10.70
2022-09-18T05:24:26.171Z,10.70
2022-09-18T05:25:29.714Z,10.70
2022-09-18T05:26:31.312Z,10.70
2022-09-18T05:27:33.835Z,10.80
2022-09-18T05:28:35.576Z,10.80
2022-09-18T05:29:37.725Z,10.70
2022-09-18T05:30:47.494Z,10.80
2022-09-18T05:31:49.748Z,10.80
2022-09-18T05:33:02.233Z,10.80
2022-09-18T05:34:05.263Z,10.90
2022-09-18T05:35:07.230Z,10.90
2022-09-18T05:36:09.252Z,10.90
2022-09-18T05:37:12.530Z,10.90
2022-09-18T05:38:14.971Z,10.80
2022-09-18T05:39:19.015Z,10.80
2022-09-18T05:40:23.808Z,10.80
2022-09-18T05:41:25.591Z,10.80
2022-09-18T05:42:27.345Z,10.80
2022-09-18T05:43:29.986Z,10.80
2022-09-18T05:44:31.549Z,10.80
2022-09-18T05:45:33.945Z,10.80
2022-09-18T05:46:38.203Z,10.80
2022-09-18T05:47:40.408Z,10.80
2022-09-18T05:48:43.225Z,10.90
2022-09-18T05:49:44.805Z,10.80
2022-09-18T05:50:46.789Z,10.80
2022-09-18T05:51:50.752Z,10.80
2022-09-18T05:52:58.299Z,10.80
2022-09-18T05:54:01.448Z,10.80
2022-09-18T05:55:13.558Z,10.90
2022-09-18T05:56:17.019Z,10.80
2022-09-18T05:57:19.203Z,10.80
2022-09-18T05:58:22.463Z,10.80
2022-09-18T05:59:28.541Z,10.80
2022-09-18T06:00:33.263Z,10.90
2022-09-18T06:01:46.845Z,10.90
2022-09-18T06:03:00.921Z,10.90
2022-09-18T06:04:03.873Z,10.90
2022-09-18T06:05:16.477Z,10.90
2022-09-18T06:06:18.093Z,10.90
2022-09-18T06:07:20.156Z,10.90
2022-09-18T06:08:22.845Z,11.00
2022-09-18T06:09:24.727Z,11.00
2022-09-18T06:10:26.882Z,11.00
2022-09-18T06:11:28.464Z,11.00
2022-09-18T06:12:30.856Z,11.00
2022-09-18T06:13:32.865Z,11.10
2022-09-18T06:14:34.825Z,11.10
2022-09-18T06:15:37.728Z,11.10
2022-09-18T06:16:42.353Z,11.10
2022-09-18T06:17:52.114Z,11.20
2022-09-18T06:18:54.004Z,11.30
2022-09-18T06:19:56.620Z,11.20
2022-09-18T06:20:59.938Z,11.20
2022-09-18T06:22:04.947Z,11.20
2022-09-18T06:23:08.599Z,11.20
2022-09-18T06:24:19.809Z,11.20
2022-09-18T06:25:30.964Z,11.20
2022-09-18T06:26:33.023Z,11.30
2022-09-18T06:27:35.061Z,11.30
2022-09-18T06:28:36.649Z,11.30
2022-09-18T06:29:39.633Z,11.30
2022-09-18T06:30:47.006Z,11.30
2022-09-18T06:31:49.619Z,11.30
2022-09-18T06:33:04.728Z,11.30
2022-09-18T06:34:06.345Z,11.30
2022-09-18T06:35:09.760Z,11.30
2022-09-18T06:36:13.952Z,11.30
2022-09-18T06:37:28.882Z,11.30
2022-09-18T06:38:51.159Z,11.30
2022-09-18T06:39:53.065Z,11.30
2022-09-18T06:41:08.946Z,11.30
2022-09-18T06:42:22.123Z,11.30
2022-09-18T06:44:02.405Z,11.40
2022-09-18T06:45:14.101Z,11.40
2022-09-18T06:46:16.676Z,11.40
2022-09-18T06:47:24.697Z,11.50
2022-09-18T06:48:29.553Z,11.50
2022-09-18T06:49:33.375Z,11.50
2022-09-18T06:50:34.992Z,11.50
2022-09-18T06:51:36.732Z,11.60
2022-09-18T06:52:45.294Z,11.50
2022-09-18T06:53:46.918Z,11.60
2022-09-18T06:54:48.603Z,11.60
2022-09-18T06:56:05.092Z,11.70
2022-09-18T06:57:10.165Z,11.70
2022-09-18T06:58:11.838Z,11.80
2022-09-18T06:59:13.878Z,11.80
2022-09-18T07:00:16.071Z,11.80
2022-09-18T07:01:17.817Z,11.90
2022-09-18T07:02:22.131Z,11.90
2022-09-18T07:03:31.991Z,12.00
2022-09-18T07:04:55.016Z,12.10
2022-09-18T07:05:56.630Z,12.10
2022-09-18T07:07:16.275Z,12.20
2022-09-18T07:08:20.796Z,12.20
2022-09-18T07:09:26.999Z,12.20
2022-09-18T07:10:28.746Z,12.20
2022-09-18T07:11:33.842Z,12.30
2022-09-18T07:12:35.959Z,12.30
2022-09-18T07:13:39.795Z,12.40
2022-09-18T07:14:41.907Z,12.50
2022-09-18T07:15:48.688Z,12.50
2022-09-18T07:16:50.356Z,12.60
2022-09-18T07:17:56.489Z,12.60
2022-09-18T07:18:58.528Z,12.80
2022-09-18T07:20:00.047Z,12.80
2022-09-18T07:21:12.075Z,12.90
2022-09-18T07:22:15.020Z,12.90
2022-09-18T07:23:20.168Z,12.90
2022-09-18T07:24:26.443Z,12.90
2022-09-18T07:25:31.373Z,12.90
2022-09-18T07:26:33.477Z,13.00
2022-09-18T07:27:36.989Z,13.00
2022-09-18T07:28:40.037Z,13.10
2022-09-18T07:30:11.240Z,13.10
2022-09-18T07:31:13.030Z,13.20
2022-09-18T07:32:14.812Z,13.30
2022-09-18T07:33:19.769Z,13.30
2022-09-18T07:34:23.987Z,13.40
2022-09-18T07:35:26.134Z,13.40
2022-09-18T07:36:31.306Z,13.50
2022-09-18T07:37:33.697Z,13.50
2022-09-18T07:38:54.600Z,13.60
2022-09-18T07:40:00.135Z,13.60
2022-09-18T07:41:20.864Z,13.60
2022-09-18T07:42:23.264Z,13.60
2022-09-18T07:43:27.545Z,13.70
2022-09-18T07:44:30.977Z,13.70
2022-09-18T07:45:35.059Z,13.70
2022-09-18T07:46:36.961Z,13.70
2022-09-18T07:47:41.217Z,13.70
2022-09-18T07:48:44.654Z,13.70
2022-09-18T07:49:59.631Z,13.70
2022-09-18T07:51:02.296Z,13.80
2022-09-18T07:52:07.370Z,13.80
2022-09-18T07:53:18.730Z,13.70
2022-09-18T07:54:23.420Z,13.70
2022-09-18T07:55:38.470Z,13.80
2022-09-18T07:56:44.754Z,13.90
2022-09-18T07:57:57.722Z,13.80
2022-09-18T07:59:19.581Z,13.70
2022-09-18T08:00:29.384Z,13.70
2022-09-18T08:01:34.080Z,13.80
2022-09-18T08:02:36.094Z,13.70
2022-09-18T08:03:41.432Z,13.70
2022-09-18T08:04:46.219Z,13.70
2022-09-18T08:06:06.949Z,13.80
2022-09-18T08:07:09.700Z,13.80
2022-09-18T08:08:54.317Z,13.80
2022-09-18T08:10:04.348Z,13.80
2022-09-18T08:11:38.120Z,13.80
2022-09-18T08:12:56.259Z,13.90
2022-09-18T08:14:30.507Z,13.90
2022-09-18T08:15:50.809Z,14.00
2022-09-18T08:17:11.970Z,14.00
2022-09-18T08:18:28.009Z,14.10
2022-09-18T08:19:55.905Z,14.20
2022-09-18T08:21:14.879Z,14.10
2022-09-18T08:22:20.459Z,14.10
2022-09-18T08:23:26.029Z,14.20
2022-09-18T08:24:27.814Z,14.30
2022-09-18T08:25:30.073Z,14.30
2022-09-18T08:26:35.865Z,14.30
2022-09-18T08:27:42.148Z,14.20
2022-09-18T08:28:44.012Z,14.30
2022-09-18T08:29:46.381Z,14.30
2022-09-18T08:30:48.291Z,14.20
2022-09-18T08:31:50.007Z,14.10
2022-09-18T08:32:53.213Z,14.10
2022-09-18T08:33:55.262Z,14.10
2022-09-18T08:34:57.353Z,14.00
2022-09-18T08:35:59.045Z,13.90
2022-09-18T08:37:12.100Z,13.70
2022-09-18T08:38:32.805Z,13.70
2022-09-18T08:39:53.238Z,13.60
2022-09-18T08:41:54.937Z,13.70
2022-09-18T08:43:16.598Z,13.80
2022-09-18T08:44:27.837Z,14.00
2022-09-18T08:45:51.182Z,13.90
2022-09-18T08:47:26.767Z,14.10
2022-09-18T08:48:37.056Z,14.40
2022-09-18T08:50:24.608Z,14.60
2022-09-18T08:52:04.848Z,14.60
2022-09-18T08:53:18.367Z,14.60
2022-09-18T08:54:49.262Z,14.60
2022-09-18T08:56:21.605Z,14.60
2022-09-18T08:57:48.075Z,14.30
2022-09-18T08:59:16.225Z,14.10
2022-09-18T09:00:27.063Z,14.00
2022-09-18T09:02:17.043Z,14.10
2022-09-18T09:03:25.092Z,14.10
2022-09-18T09:04:31.333Z,14.20
2022-09-18T09:05:48.008Z,14.20
2022-09-18T09:07:20.501Z,14.30
2022-09-18T09:09:14.932Z,14.30
2022-09-18T09:10:40.622Z,14.40
2022-09-18T09:12:10.961Z,14.60
2022-09-18T09:13:38.504Z,14.80
2022-09-18T09:15:01.583Z,15.10
2022-09-18T09:16:24.057Z,15.20
2022-09-18T09:17:40.955Z,15.20
2022-09-18T09:19:01.685Z,15.20
2022-09-18T09:20:25.059Z,15.20
2022-09-18T09:21:39.351Z,15.50
2022-09-18T09:22:50.433Z,15.70
2022-09-18T09:24:04.202Z,15.80
2022-09-18T09:25:50.712Z,16.00
2022-09-18T09:27:17.038Z,16.10
2022-09-18T09:29:11.204Z,16.40
2022-09-18T09:30:35.236Z,16.40
2022-09-18T09:32:38.808Z,16.30
2022-09-18T09:34:14.119Z,16.40
2022-09-18T09:35:55.410Z,16.30
2022-09-18T09:37:13.751Z,16.40
2022-09-18T09:38:45.103Z,16.50
2022-09-18T09:40:05.687Z,16.60
2022-09-18T09:41:24.763Z,16.70
2022-09-18T09:43:01.106Z,16.90
2022-09-18T09:44:17.761Z,17.10
2022-09-18T09:45:30.557Z,17.00
2022-09-18T09:46:51.394Z,16.90
2022-09-18T09:48:16.598Z,16.50
2022-09-18T09:49:45.523Z,16.30
2022-09-18T09:51:13.762Z,16.40
2022-09-18T09:52:27.679Z,16.40
2022-09-18T09:53:35.187Z,16.50
2022-09-18T09:54:37.427Z,16.70
2022-09-18T09:55:52.806Z,16.80
2022-09-18T09:57:06.106Z,16.50
2022-09-18T09:58:20.019Z,16.70
2022-09-18T09:59:38.846Z,16.90
2022-09-18T10:01:07.094Z,17.00
2022-09-18T10:02:32.817Z,17.00
2022-09-18T10:03:56.209Z,17.00
2022-09-18T10:05:25.558Z,17.10
2022-09-18T10:06:35.639Z,17.20
2022-09-18T10:07:53.864Z,17.10
2022-09-18T10:09:17.015Z,17.10
2022-09-18T10:10:40.496Z,17.20
2022-09-18T10:11:48.188Z,17.00
2022-09-18T10:12:54.783Z,16.90
2022-09-18T10:14:09.979Z,16.80
2022-09-18T10:15:43.020Z,16.90
2022-09-18T10:16:51.711Z,17.00
2022-09-18T10:17:58.786Z,17.10
2022-09-18T10:19:00.848Z,17.20
2022-09-18T10:20:04.571Z,17.10
2022-09-18T10:21:13.088Z,16.90
2022-09-18T10:22:19.223Z,17.00
2022-09-18T10:23:39.387Z,16.80
2022-09-18T10:25:00.954Z,16.80
2022-09-18T10:26:03.202Z,16.70
2022-09-18T10:27:15.963Z,16.60
2022-09-18T10:28:17.980Z,16.60
2022-09-18T10:29:21.770Z,16.60
2022-09-18T10:30:27.818Z,16.60
2022-09-18T10:31:57.872Z,16.60
2022-09-18T10:33:03.540Z,16.80
2022-09-18T10:34:45.076Z,17.00
2022-09-18T10:35:48.323Z,17.30
2022-09-18T10:36:49.990Z,17.60
2022-09-18T10:37:53.158Z,17.70
2022-09-18T10:39:33.621Z,17.60
2022-09-18T10:40:42.911Z,17.50
2022-09-18T10:41:45.038Z,17.40
2022-09-18T10:42:55.163Z,17.40
2022-09-18T10:44:18.699Z,16.80
2022-09-18T10:45:39.589Z,16.60
2022-09-18T10:47:15.266Z,16.40
2022-09-18T10:48:21.803Z,16.40
2022-09-18T10:49:30.485Z,16.30
2022-09-18T10:50:34.556Z,16.20
2022-09-18T10:51:36.230Z,16.30
2022-09-18T10:52:48.542Z,16.50
2022-09-18T10:54:14.747Z,16.50
2022-09-18T10:55:29.175Z,16.40
2022-09-18T10:56:34.455Z,16.30
2022-09-18T10:57:54.239Z,16.20
2022-09-18T10:58:55.940Z,16.20
2022-09-18T10:59:57.920Z,16.10
2022-09-18T11:01:03.669Z,16.20
2022-09-18T11:02:17.301Z,16.20
2022-09-18T11:03:21.600Z,16.50
2022-09-18T11:04:23.937Z,16.60
2022-09-18T11:05:57.273Z,16.70
2022-09-18T11:07:02.885Z,17.00
2022-09-18T11:08:13.026Z,17.30
2022-09-18T11:09:20.017Z,17.50
2022-09-18T11:10:24.857Z,17.70
2022-09-18T11:11:32.858Z,17.90
2022-09-18T11:12:53.567Z,18.10
2022-09-18T11:14:04.323Z,18.30
2022-09-18T11:15:18.006Z,18.40
2022-09-18T11:16:27.271Z,18.50
2022-09-18T11:17:35.072Z,18.50
2022-09-18T11:18:38.762Z,18.70
2022-09-18T11:19:41.730Z,18.70
2022-09-18T11:21:07.720Z,18.80
2022-09-18T11:22:31.802Z,18.90
2022-09-18T11:23:37.220Z,18.40
2022-09-18T11:24:47.298Z,18.40
2022-09-18T11:25:49.536Z,18.30
2022-09-18T11:27:00.656Z,18.30
2022-09-18T11:28:03.087Z,18.40
2022-09-18T11:29:25.419Z,18.30
2022-09-18T11:30:34.102Z,18.50
2022-09-18T11:31:45.484Z,18.40
2022-09-18T11:33:00.930Z,18.30
2022-09-18T11:34:06.516Z,18.30
2022-09-18T11:35:16.836Z,18.30
2022-09-18T11:36:28.124Z,18.40
2022-09-18T11:37:43.595Z,18.50
2022-09-18T11:38:47.267Z,18.50
2022-09-18T11:39:58.861Z,18.20
2022-09-18T11:41:01.681Z,18.30
2022-09-18T11:42:14.582Z,18.40
2022-09-18T11:43:30.768Z,18.50
2022-09-18T11:44:34.415Z,18.30
2022-09-18T11:45:46.517Z,18.20
2022-09-18T11:47:15.970Z,18.10
2022-09-18T11:48:59.335Z,18.10
2022-09-18T11:50:23.770Z,18.10
2022-09-18T11:51:45.026Z,18.00
2022-09-18T11:52:58.884Z,18.00
2022-09-18T11:54:08.369Z,17.80
2022-09-18T11:55:41.795Z,17.70
2022-09-18T11:56:51.082Z,17.40
2022-09-18T11:58:02.068Z,17.60
2022-09-18T11:59:25.515Z,17.80
2022-09-18T12:00:31.729Z,18.00
2022-09-18T12:01:42.071Z,18.20
2022-09-18T12:03:00.476Z,18.40
2022-09-18T12:04:21.813Z,18.50
2022-09-18T12:05:38.365Z,18.70
2022-09-18T12:07:10.079Z,18.90
2022-09-18T12:08:32.142Z,19.00
2022-09-18T12:09:55.527Z,18.90
2022-09-18T12:11:03.973Z,18.90
2022-09-18T12:12:11.410Z,19.00
2022-09-18T12:13:22.796Z,18.90
2022-09-18T12:14:39.143Z,18.90
2022-09-18T12:16:11.922Z,19.00
2022-09-18T12:17:38.632Z,19.10
2022-09-18T12:19:16.796Z,19.20
2022-09-18T12:20:31.214Z,19.30
2022-09-18T12:21:50.068Z,19.30
2022-09-18T12:22:57.189Z,19.40
2022-09-18T12:23:59.614Z,19.20
2022-09-18T12:25:17.234Z,19.00
2022-09-18T12:27:00.320Z,18.80
2022-09-18T12:28:28.474Z,18.30
2022-09-18T12:29:51.521Z,18.20
2022-09-18T12:31:06.439Z,18.20
2022-09-18T12:32:41.866Z,17.90
2022-09-18T12:33:54.933Z,18.10
2022-09-18T12:35:21.038Z,18.20
2022-09-18T12:36:45.529Z,18.40
2022-09-18T12:37:59.659Z,18.70
2022-09-18T12:39:31.097Z,18.90
2022-09-18T12:41:06.498Z,18.90
2022-09-18T12:42:38.447Z,18.90
2022-09-18T12:44:07.562Z,18.90
2022-09-18T12:45:30.285Z,18.80
2022-09-18T12:46:59.860Z,18.80
2022-09-18T12:49:06.332Z,18.70
2022-09-18T12:50:16.603Z,18.50
2022-09-18T12:51:49.485Z,18.70
2022-09-18T12:53:09.812Z,18.70
2022-09-18T12:54:35.563Z,18.70
2022-09-18T12:55:45.637Z,18.90
2022-09-18T12:56:48.200Z,19.10
2022-09-18T12:58:10.358Z,19.30
2022-09-18T12:59:17.652Z,19.30
2022-09-18T13:00:22.155Z,19.30
2022-09-18T13:01:45.164Z,19.40
2022-09-18T13:03:17.432Z,19.40
2022-09-18T13:04:32.179Z,19.30
2022-09-18T13:05:35.179Z,19.00
2022-09-18T13:06:46.527Z,18.90
2022-09-18T13:07:54.044Z,18.90
2022-09-18T13:09:04.523Z,18.90
2022-09-18T13:10:18.638Z,18.80
2022-09-18T13:11:32.111Z,18.70
2022-09-18T13:12:41.904Z,18.70
2022-09-18T13:13:53.191Z,18.70
2022-09-18T13:15:05.237Z,18.60
2022-09-18T13:16:26.590Z,18.40
2022-09-18T13:17:38.592Z,18.50
2022-09-18T13:18:50.363Z,18.50
2022-09-18T13:19:59.634Z,18.60
2022-09-18T13:21:05.652Z,18.70
2022-09-18T13:22:13.119Z,18.70
2022-09-18T13:23:24.866Z,18.70
2022-09-18T13:24:32.844Z,18.60
2022-09-18T13:25:38.941Z,18.60
2022-09-18T13:26:42.097Z,18.40
2022-09-18T13:27:43.645Z,18.20
2022-09-18T13:28:45.247Z,18.20
2022-09-18T13:29:46.602Z,18.10
2022-09-18T13:31:09.709Z,17.90
2022-09-18T13:32:12.311Z,17.80
2022-09-18T13:33:25.271Z,17.90
2022-09-18T13:34:26.891Z,17.70
2022-09-18T13:35:34.744Z,17.80
2022-09-18T13:36:41.233Z,17.90
2022-09-18T13:37:43.356Z,17.90
2022-09-18T13:38:48.413Z,17.80
2022-09-18T13:40:25.349Z,17.70
2022-09-18T13:41:28.391Z,17.60
2022-09-18T13:42:32.883Z,17.70
2022-09-18T13:43:39.909Z,17.70
2022-09-18T13:44:41.369Z,17.60
2022-09-18T13:45:43.058Z,17.60
2022-09-18T13:46:44.962Z,17.50
2022-09-18T13:48:24.648Z,17.50
2022-09-18T13:49:33.101Z,17.60
2022-09-18T13:50:36.027Z,17.70
2022-09-18T13:51:37.539Z,17.60
2022-09-18T13:52:43.616Z,17.70
2022-09-18T13:53:45.472Z,17.60
2022-09-18T13:55:12.941Z,17.70
2022-09-18T13:56:16.727Z,17.80
2022-09-18T13:57:19.881Z,17.90
2022-09-18T13:58:35.194Z,18.00
2022-09-18T13:59:45.375Z,18.10
2022-09-18T14:00:46.967Z,18.20
2022-09-18T14:01:59.287Z,18.20
2022-09-18T14:03:06.751Z,18.20
2022-09-18T14:04:39.303Z,18.30
2022-09-18T14:05:42.676Z,18.40
2022-09-18T14:06:45.279Z,18.30
2022-09-18T14:07:54.450Z,18.20
2022-09-18T14:08:56.287Z,18.20
2022-09-18T14:10:04.173Z,18.20
2022-09-18T14:11:16.247Z,18.30
2022-09-18T14:12:19.684Z,18.30
2022-09-18T14:13:43.472Z,18.30
2022-09-18T14:15:03.376Z,18.30
2022-09-18T14:16:10.389Z,18.30
2022-09-18T14:17:14.091Z,18.30
2022-09-18T14:18:24.634Z,18.40
2022-09-18T14:19:28.660Z,18.40
2022-09-18T14:20:30.914Z,18.40
2022-09-18T14:21:43.718Z,18.30
2022-09-18T14:22:45.440Z,18.30
2022-09-18T14:23:47.138Z,18.30
2022-09-18T14:24:51.544Z,18.30
2022-09-18T14:25:53.058Z,18.30
2022-09-18T14:27:20.357Z,18.30
2022-09-18T14:28:22.172Z,18.20
2022-09-18T14:29:28.741Z,18.20
2022-09-18T14:30:32.216Z,18.10
2022-09-18T14:31:38.204Z,18.10
2022-09-18T14:32:41.882Z,18.20
2022-09-18T14:33:44.535Z,18.00
2022-09-18T14:34:46.124Z,18.00
2022-09-18T14:35:57.200Z,18.00
2022-09-18T14:37:02.000Z,17.80
2022-09-18T14:38:16.394Z,17.80
2022-09-18T14:39:24.704Z,17.80
2022-09-18T14:40:29.951Z,17.80
2022-09-18T14:41:35.502Z,17.80
2022-09-18T14:42:40.506Z,17.90
2022-09-18T14:43:49.555Z,17.90
2022-09-18T14:44:57.154Z,17.90
2022-09-18T14:45:58.885Z,18.00
2022-09-18T14:47:03.314Z,18.00
2022-09-18T14:48:21.903Z,18.10
2022-09-18T14:49:34.010Z,18.20
2022-09-18T14:50:40.203Z,18.20
2022-09-18T14:52:03.267Z,17.90
2022-09-18T14:53:45.831Z,17.70
2022-09-18T14:54:49.546Z,17.80
2022-09-18T14:56:07.764Z,17.80
2022-09-18T14:57:12.790Z,17.70
2022-09-18T14:58:19.365Z,17.80
2022-09-18T14:59:22.334Z,17.80
2022-09-18T15:00:27.394Z,17.70
2022-09-18T15:01:40.475Z,17.60
2022-09-18T15:02:41.918Z,17.60
2022-09-18T15:03:47.152Z,17.60
2022-09-18T15:04:49.497Z,17.60
2022-09-18T15:05:53.369Z,17.60
2022-09-18T15:06:55.098Z,17.60